createdAt,value
2017-12-15T00:00:13.567Z,2.30
2017-12-15T00:02:16.287Z,2.30
2017-12-15T00:04:19.718Z,2.30
2017-12-15T00:06:22.371Z,2.30
2017-12-15T00:08:25.067Z,2.30
2017-12-15T00:10:27.721Z,2.30
2017-12-15T00:12:30.369Z,2.30
2017-12-15T00:14:33.838Z,2.30
2017-12-15T00:16:36.524Z,2.30
2017-12-15T00:18:39.195Z,2.30
2017-12-15T00:20:41.869Z,2.30
2017-12-15T00:22:44.524Z,2.30
2017-12-15T00:24:47.184Z,2.30
2017-12-15T00:26:49.860Z,2.40
2017-12-15T00:28:52.554Z,2.40
2017-12-15T00:30:55.216Z,2.40
2017-12-15T00:32:57.908Z,2.30
2017-12-15T00:35:00.553Z,2.30
2017-12-15T00:37:03.213Z,2.30
2017-12-15T00:39:05.987Z,2.30
2017-12-15T00:41:08.632Z,2.30
2017-12-15T00:43:11.273Z,2.40
2017-12-15T00:45:13.937Z,2.30
2017-12-15T00:47:16.606Z,2.40
2017-12-15T00:49:19.288Z,2.40
2017-12-15T00:51:21.975Z,2.40
2017-12-15T00:53:24.626Z,2.40
2017-12-15T00:55:27.348Z,2.40
2017-12-15T00:57:30.104Z,2.40
2017-12-15T00:59:32.771Z,2.40
2017-12-15T01:01:35.440Z,2.40
2017-12-15T01:03:38.111Z,2.40
2017-12-15T01:05:41.071Z,2.40
2017-12-15T01:07:43.759Z,2.40
2017-12-15T01:09:47.185Z,2.40
2017-12-15T01:11:49.866Z,2.40
2017-12-15T01:13:52.565Z,2.40
2017-12-15T01:15:55.217Z,2.40
2017-12-15T01:17:57.893Z,2.40
2017-12-15T01:20:00.582Z,2.40
2017-12-15T01:22:03.246Z,2.40
2017-12-15T01:24:05.912Z,2.40
2017-12-15T01:26:08.622Z,2.40
2017-12-15T01:28:13.215Z,2.40
2017-12-15T01:30:15.858Z,2.40
2017-12-15T01:32:19.300Z,2.40
2017-12-15T01:34:21.937Z,2.40
2017-12-15T01:36:25.343Z,2.40
2017-12-15T01:38:28.027Z,2.30
2017-12-15T01:40:30.687Z,2.40
2017-12-15T01:42:33.415Z,2.40
2017-12-15T01:44:36.141Z,2.30
2017-12-15T01:46:38.789Z,2.30
2017-12-15T01:48:41.461Z,2.40
2017-12-15T01:50:44.143Z,2.40
2017-12-15T01:52:46.789Z,2.40
2017-12-15T01:54:50.228Z,2.40
2017-12-15T01:56:53.688Z,2.40
2017-12-15T01:58:56.363Z,2.40
2017-12-15T02:00:59.029Z,2.40
2017-12-15T02:03:01.721Z,2.40
2017-12-15T02:05:04.384Z,2.40
2017-12-15T02:07:07.047Z,2.40
2017-12-15T02:09:09.730Z,2.40
2017-12-15T02:11:12.412Z,2.40
2017-12-15T02:13:15.086Z,2.40
2017-12-15T02:15:17.782Z,2.40
2017-12-15T02:17:20.435Z,2.40
2017-12-15T02:19:23.917Z,2.40
2017-12-15T02:21:26.583Z,2.40
2017-12-15T02:23:29.231Z,2.40
2017-12-15T02:25:32.677Z,2.40
2017-12-15T02:27:35.372Z,2.40
2017-12-15T02:29:38.029Z,2.40
2017-12-15T02:31:40.698Z,2.50
2017-12-15T02:33:43.355Z,2.40
2017-12-15T02:35:46.012Z,2.40
2017-12-15T02:37:48.716Z,2.40
2017-12-15T02:39:51.361Z,2.40
2017-12-15T02:41:54.028Z,2.40
2017-12-15T02:43:57.546Z,2.50
2017-12-15T02:46:00.232Z,2.40
2017-12-15T02:48:02.925Z,2.50
2017-12-15T02:50:05.617Z,2.50
2017-12-15T02:52:08.284Z,2.40
2017-12-15T02:54:10.933Z,2.40
2017-12-15T02:56:13.614Z,2.50
2017-12-15T02:58:16.292Z,2.40
2017-12-15T03:00:19.011Z,2.40
2017-12-15T03:02:21.657Z,2.50
2017-12-15T03:04:24.346Z,2.50
2017-12-15T03:06:27.031Z,2.50
2017-12-15T03:08:29.672Z,2.50
2017-12-15T03:10:32.346Z,2.50
2017-12-15T03:12:35.073Z,2.50
2017-12-15T03:14:37.708Z,2.50
2017-12-15T03:16:40.362Z,2.50
2017-12-15T03:18:43.050Z,2.50
2017-12-15T03:20:45.718Z,2.50
2017-12-15T03:22:48.390Z,2.50
2017-12-15T03:24:51.051Z,2.50
2017-12-15T03:26:54.500Z,2.50
2017-12-15T03:28:57.167Z,2.50
2017-12-15T03:30:59.862Z,2.40
2017-12-15T03:33:02.538Z,2.30
2017-12-15T03:35:05.201Z,2.30
2017-12-15T03:37:07.897Z,2.30
2017-12-15T03:39:10.558Z,2.20
2017-12-15T03:41:13.231Z,2.20
2017-12-15T03:43:15.923Z,2.30
2017-12-15T03:45:18.565Z,2.30
2017-12-15T03:47:21.213Z,2.30
2017-12-15T03:49:23.873Z,2.30
2017-12-15T03:51:27.319Z,2.50
2017-12-15T03:53:30.001Z,2.50
2017-12-15T03:55:32.649Z,2.50
2017-12-15T03:57:35.296Z,2.50
2017-12-15T03:59:38.742Z,2.50
2017-12-15T04:01:41.403Z,2.60
2017-12-15T04:03:45.041Z,2.50
2017-12-15T04:05:47.751Z,2.50
2017-12-15T04:07:51.170Z,2.60
2017-12-15T04:09:53.963Z,2.60
2017-12-15T04:11:56.638Z,2.60
2017-12-15T04:13:59.314Z,2.50
2017-12-15T04:16:01.999Z,2.50
2017-12-15T04:18:04.721Z,2.50
2017-12-15T04:20:08.225Z,2.50
2017-12-15T04:22:10.928Z,2.50
2017-12-15T04:24:13.604Z,2.60
2017-12-15T04:26:17.335Z,2.60
2017-12-15T04:28:20.008Z,2.60
2017-12-15T04:30:22.686Z,2.60
2017-12-15T04:32:25.364Z,2.70
2017-12-15T04:34:28.039Z,2.70
2017-12-15T04:36:30.762Z,2.70
2017-12-15T04:38:34.263Z,2.80
2017-12-15T04:40:36.926Z,2.80
2017-12-15T04:42:40.650Z,2.80
2017-12-15T04:44:44.276Z,2.80
2017-12-15T04:46:46.925Z,2.90
2017-12-15T04:48:49.616Z,2.90
2017-12-15T04:50:52.273Z,2.90
2017-12-15T04:52:54.945Z,2.90
2017-12-15T04:54:57.638Z,3.00
2017-12-15T04:57:00.300Z,3.00
2017-12-15T04:59:02.989Z,3.00
2017-12-15T05:01:05.700Z,3.00
2017-12-15T05:03:08.356Z,3.00
2017-12-15T05:05:10.997Z,3.00
2017-12-15T05:07:13.692Z,3.10
2017-12-15T05:09:16.379Z,3.10
2017-12-15T05:11:19.071Z,3.10
2017-12-15T05:13:21.747Z,3.10
2017-12-15T05:15:24.438Z,3.10
2017-12-15T05:17:27.159Z,3.10
2017-12-15T05:19:29.880Z,3.10
2017-12-15T05:21:32.538Z,3.10
2017-12-15T05:23:35.273Z,3.10
2017-12-15T05:25:38.712Z,3.10
2017-12-15T05:27:41.368Z,3.10
2017-12-15T05:29:44.061Z,3.20
2017-12-15T05:31:46.726Z,3.20
2017-12-15T05:33:49.390Z,3.20
2017-12-15T05:35:52.089Z,3.20
2017-12-15T05:37:54.888Z,3.10
2017-12-15T05:39:58.334Z,3.10
2017-12-15T05:42:01.013Z,3.10
2017-12-15T05:44:03.676Z,3.10
2017-12-15T05:46:07.129Z,3.10
2017-12-15T05:48:09.798Z,3.10
2017-12-15T05:50:12.453Z,3.20
2017-12-15T05:52:15.151Z,3.20
2017-12-15T05:54:17.808Z,3.20
2017-12-15T05:56:20.446Z,3.20
2017-12-15T05:58:23.902Z,3.20
2017-12-15T06:00:26.550Z,3.20
2017-12-15T06:02:29.204Z,3.20
2017-12-15T06:04:31.884Z,3.20
2017-12-15T06:06:34.538Z,3.20
2017-12-15T06:08:37.945Z,3.20
2017-12-15T06:10:40.614Z,3.20
2017-12-15T06:12:44.020Z,3.20
2017-12-15T06:14:46.674Z,3.20
2017-12-15T06:16:50.123Z,3.20
2017-12-15T06:18:52.777Z,3.20
2017-12-15T06:20:55.442Z,3.20
2017-12-15T06:22:58.129Z,3.20
2017-12-15T06:25:01.052Z,3.20
2017-12-15T06:27:05.980Z,3.20
2017-12-15T06:29:08.843Z,3.20
2017-12-15T06:31:11.535Z,3.20
2017-12-15T06:33:14.236Z,3.20
2017-12-15T06:35:16.904Z,3.30
2017-12-15T06:37:19.551Z,3.30
2017-12-15T06:39:22.241Z,3.30
2017-12-15T06:41:24.933Z,3.30
2017-12-15T06:43:27.664Z,3.30
2017-12-15T06:45:30.361Z,3.30
2017-12-15T06:47:33.061Z,3.30
2017-12-15T06:49:35.761Z,3.30
2017-12-15T06:51:39.216Z,3.30
2017-12-15T06:53:41.927Z,3.20
2017-12-15T06:55:45.384Z,3.30
2017-12-15T06:57:48.872Z,3.30
2017-12-15T06:59:51.524Z,3.20
2017-12-15T07:01:54.238Z,3.30
2017-12-15T07:03:56.887Z,3.20
2017-12-15T07:05:59.529Z,3.30
2017-12-15T07:08:02.980Z,3.20
2017-12-15T07:10:05.644Z,3.20
2017-12-15T07:12:08.295Z,3.30
2017-12-15T07:14:10.970Z,3.30
2017-12-15T07:16:13.633Z,3.30
2017-12-15T07:18:16.271Z,3.30
2017-12-15T07:20:18.954Z,3.30
2017-12-15T07:22:21.593Z,3.30
2017-12-15T07:24:24.229Z,3.30
2017-12-15T07:26:27.714Z,3.30
2017-12-15T07:28:31.154Z,3.30
2017-12-15T07:30:33.814Z,3.30
2017-12-15T07:32:36.510Z,3.30
2017-12-15T07:34:39.212Z,3.30
2017-12-15T07:36:41.859Z,3.20
2017-12-15T07:38:44.547Z,3.20
2017-12-15T07:40:47.240Z,3.20
2017-12-15T07:42:49.928Z,3.20
2017-12-15T07:44:52.604Z,3.20
2017-12-15T07:46:55.287Z,3.20
2017-12-15T07:48:57.933Z,3.20
2017-12-15T07:51:00.626Z,3.20
2017-12-15T07:53:03.322Z,3.20
2017-12-15T07:55:06.783Z,3.20
2017-12-15T07:57:09.469Z,3.20
2017-12-15T07:59:12.132Z,3.20
2017-12-15T08:01:14.881Z,3.30
2017-12-15T08:03:17.537Z,3.30
2017-12-15T08:05:21.000Z,3.30
2017-12-15T08:07:23.678Z,3.30
2017-12-15T08:09:26.359Z,3.30
2017-12-15T08:11:29.050Z,3.30
2017-12-15T08:13:32.495Z,3.30
2017-12-15T08:15:35.144Z,3.30
2017-12-15T08:17:37.840Z,3.30
2017-12-15T08:19:40.523Z,3.30
2017-12-15T08:21:43.227Z,3.30
2017-12-15T08:23:45.951Z,3.30
2017-12-15T08:25:48.634Z,3.30
2017-12-15T08:27:51.301Z,3.40
2017-12-15T08:29:53.995Z,3.40
2017-12-15T08:31:56.668Z,3.40
2017-12-15T08:33:59.371Z,3.50
2017-12-15T08:36:02.048Z,3.60
2017-12-15T08:38:04.727Z,3.60
2017-12-15T08:40:07.371Z,3.70
2017-12-15T08:42:10.109Z,3.70
2017-12-15T08:44:13.538Z,3.80
2017-12-15T08:46:16.201Z,3.80
2017-12-15T08:48:26.898Z,3.90
2017-12-15T08:50:29.575Z,3.90
2017-12-15T08:52:32.246Z,4.00
2017-12-15T08:54:34.940Z,4.00
2017-12-15T08:56:37.638Z,4.00
2017-12-15T08:58:40.321Z,4.00
2017-12-15T09:00:43.775Z,4.00
2017-12-15T09:02:46.450Z,4.00
2017-12-15T09:04:49.111Z,4.10
2017-12-15T09:06:51.814Z,4.10
2017-12-15T09:08:55.251Z,4.20
2017-12-15T09:10:58.691Z,4.20
2017-12-15T09:13:01.414Z,4.20
2017-12-15T09:15:04.892Z,4.30
2017-12-15T09:17:08.354Z,4.20
2017-12-15T09:19:11.046Z,4.20
2017-12-15T09:21:13.692Z,4.30
2017-12-15T09:23:16.415Z,4.30
2017-12-15T09:25:19.082Z,4.30
2017-12-15T09:27:22.781Z,4.30
2017-12-15T09:29:25.472Z,4.30
2017-12-15T09:31:28.126Z,4.20
2017-12-15T09:33:30.787Z,4.20
2017-12-15T09:35:33.475Z,4.30
2017-12-15T09:37:36.145Z,4.40
2017-12-15T09:39:38.804Z,4.50
2017-12-15T09:41:41.511Z,4.40
2017-12-15T09:43:44.176Z,4.50
2017-12-15T09:45:46.823Z,4.40
2017-12-15T09:47:49.504Z,4.40
2017-12-15T09:49:53.210Z,4.40
2017-12-15T09:51:55.863Z,4.40
2017-12-15T09:53:58.529Z,4.40
2017-12-15T09:56:01.948Z,4.40
2017-12-15T09:58:04.644Z,4.30
2017-12-15T10:00:07.360Z,4.40
2017-12-15T10:02:10.016Z,4.50
2017-12-15T10:04:12.706Z,4.60
2017-12-15T10:06:15.411Z,4.60
2017-12-15T10:08:18.933Z,4.60
2017-12-15T10:10:21.593Z,4.50
2017-12-15T10:12:24.264Z,4.70
2017-12-15T10:14:26.921Z,4.70
2017-12-15T10:16:30.324Z,4.80
2017-12-15T10:18:33.763Z,4.80
2017-12-15T10:20:36.412Z,4.80
2017-12-15T10:22:39.049Z,4.90
2017-12-15T10:24:41.719Z,5.10
2017-12-15T10:26:44.367Z,5.30
2017-12-15T10:28:47.080Z,5.60
2017-12-15T10:30:49.790Z,5.60
2017-12-15T10:32:52.678Z,5.60
2017-12-15T10:34:55.355Z,5.60
2017-12-15T10:36:58.045Z,5.70
2017-12-15T10:39:00.699Z,5.60
2017-12-15T10:41:03.387Z,5.70
2017-12-15T10:43:06.072Z,5.50
2017-12-15T10:45:08.729Z,5.40
2017-12-15T10:47:11.373Z,5.20
2017-12-15T10:49:14.177Z,5.20
2017-12-15T10:51:16.817Z,5.00
2017-12-15T10:53:19.489Z,5.00
2017-12-15T10:55:22.141Z,5.00
2017-12-15T10:57:24.768Z,5.00
2017-12-15T10:59:28.212Z,5.00
2017-12-15T11:01:30.874Z,5.00
2017-12-15T11:03:33.521Z,5.10
2017-12-15T11:05:37.244Z,5.20
2017-12-15T11:07:39.921Z,5.10
2017-12-15T11:09:42.570Z,5.20
2017-12-15T11:11:46.018Z,5.10
2017-12-15T11:13:48.656Z,5.20
2017-12-15T11:15:51.310Z,5.10
2017-12-15T11:17:54.781Z,5.10
2017-12-15T11:19:57.437Z,5.10
2017-12-15T11:22:00.110Z,5.10
2017-12-15T11:24:02.796Z,5.20
2017-12-15T11:26:05.460Z,5.20
2017-12-15T11:28:08.127Z,5.20
2017-12-15T11:30:10.877Z,5.10
2017-12-15T11:32:13.548Z,5.10
2017-12-15T11:34:16.234Z,5.00
2017-12-15T11:36:18.921Z,5.00
2017-12-15T11:38:21.594Z,4.90
2017-12-15T11:40:24.277Z,4.80
2017-12-15T11:42:26.983Z,4.80
2017-12-15T11:44:29.685Z,4.80
2017-12-15T11:46:33.221Z,4.70
2017-12-15T11:48:35.927Z,4.70
2017-12-15T11:50:38.609Z,4.70
2017-12-15T11:52:41.292Z,4.70
2017-12-15T11:54:43.973Z,4.70
2017-12-15T11:56:46.642Z,4.60
2017-12-15T11:58:49.321Z,4.70
2017-12-15T12:00:51.984Z,4.70
2017-12-15T12:02:54.649Z,4.70
2017-12-15T12:04:57.357Z,4.70
2017-12-15T12:07:00.083Z,4.80
2017-12-15T12:09:02.780Z,4.80
2017-12-15T12:11:05.499Z,4.80
2017-12-15T12:13:09.070Z,4.80
2017-12-15T12:15:11.755Z,4.80
2017-12-15T12:17:14.446Z,4.80
2017-12-15T12:19:17.137Z,4.80
2017-12-15T12:21:19.824Z,4.80
2017-12-15T12:23:22.527Z,4.80
2017-12-15T12:25:25.207Z,5.00
2017-12-15T12:27:27.861Z,5.10
2017-12-15T12:29:30.554Z,5.30
2017-12-15T12:31:33.247Z,5.50
2017-12-15T12:33:35.912Z,5.60
2017-12-15T12:35:38.587Z,5.60
2017-12-15T12:37:41.234Z,5.50
2017-12-15T12:39:43.909Z,5.50
2017-12-15T12:41:46.589Z,5.50
2017-12-15T12:43:49.256Z,5.60
2017-12-15T12:45:52.667Z,5.90
2017-12-15T12:47:55.354Z,5.90
2017-12-15T12:49:57.987Z,5.90
2017-12-15T12:52:01.404Z,5.70
2017-12-15T12:54:04.126Z,5.70
2017-12-15T12:56:06.831Z,5.60
2017-12-15T12:58:10.325Z,5.40
2017-12-15T13:00:13.097Z,5.40
2017-12-15T13:02:15.772Z,5.30
2017-12-15T13:04:18.437Z,5.20
2017-12-15T13:06:21.148Z,5.10
2017-12-15T13:08:24.607Z,5.00
2017-12-15T13:10:27.304Z,5.00
2017-12-15T13:12:29.964Z,5.00
2017-12-15T13:14:32.701Z,5.20
2017-12-15T13:16:35.447Z,5.10
2017-12-15T13:18:39.005Z,5.10
2017-12-15T13:20:41.682Z,5.10
2017-12-15T13:22:44.363Z,5.10
2017-12-15T13:24:47.068Z,5.10
2017-12-15T13:26:50.510Z,5.10
2017-12-15T13:28:53.177Z,5.10
2017-12-15T13:30:55.885Z,5.00
2017-12-15T13:32:58.557Z,4.90
2017-12-15T13:35:01.216Z,4.90
2017-12-15T13:37:03.905Z,4.80
2017-12-15T13:39:06.588Z,4.70
2017-12-15T13:41:09.248Z,4.70
2017-12-15T13:43:11.967Z,4.60
2017-12-15T13:45:15.403Z,4.60
2017-12-15T13:47:18.106Z,4.60
2017-12-15T13:49:20.790Z,4.60
2017-12-15T13:51:23.455Z,4.60
2017-12-15T13:53:26.127Z,4.60
2017-12-15T13:55:28.813Z,4.60
2017-12-15T13:57:31.453Z,4.60
2017-12-15T13:59:34.159Z,4.60
2017-12-15T14:01:36.905Z,4.50
2017-12-15T14:03:39.562Z,4.50
2017-12-15T14:05:44.001Z,4.50
2017-12-15T14:07:46.681Z,4.50
2017-12-15T14:09:49.334Z,4.60
2017-12-15T14:11:51.988Z,4.60
2017-12-15T14:13:54.668Z,4.60
2017-12-15T14:15:58.180Z,4.60
2017-12-15T14:18:01.598Z,4.60
2017-12-15T14:20:04.331Z,4.60
2017-12-15T14:22:07.776Z,4.40
2017-12-15T14:24:10.662Z,4.40
2017-12-15T14:26:13.365Z,4.40
2017-12-15T14:28:16.061Z,4.40
2017-12-15T14:30:18.726Z,4.40
2017-12-15T14:32:21.520Z,4.30
2017-12-15T14:34:24.223Z,4.30
2017-12-15T14:36:27.332Z,4.20
2017-12-15T14:38:30.023Z,4.20
2017-12-15T14:40:32.864Z,4.20
2017-12-15T14:42:36.716Z,4.20
2017-12-15T14:44:39.411Z,4.10
2017-12-15T14:46:42.141Z,4.20
2017-12-15T14:48:51.762Z,4.20
2017-12-15T14:50:47.518Z,4.10
2017-12-15T14:52:50.205Z,4.10
2017-12-15T14:54:52.862Z,4.10
2017-12-15T14:56:55.575Z,4.10
2017-12-15T14:58:58.265Z,4.10
2017-12-15T15:01:02.760Z,4.10
2017-12-15T15:03:05.432Z,4.10
2017-12-15T15:05:08.102Z,4.10
2017-12-15T15:07:10.803Z,4.10
2017-12-15T15:09:13.559Z,4.00
2017-12-15T15:11:17.019Z,4.00
2017-12-15T15:13:19.716Z,4.00
2017-12-15T15:15:26.038Z,4.00
2017-12-15T15:17:28.901Z,4.00
2017-12-15T15:19:31.601Z,4.00
2017-12-15T15:21:34.243Z,3.90
2017-12-15T15:23:36.895Z,3.90
2017-12-15T15:25:39.668Z,3.80
2017-12-15T15:27:42.435Z,3.80
2017-12-15T15:29:45.092Z,3.70
2017-12-15T15:31:47.752Z,3.70
2017-12-15T15:33:51.207Z,3.60
2017-12-15T15:35:53.899Z,3.60
2017-12-15T15:37:56.681Z,3.60
2017-12-15T15:39:59.369Z,3.50
2017-12-15T15:42:02.859Z,3.40
2017-12-15T15:44:06.341Z,3.30
2017-12-15T15:46:09.051Z,3.30
2017-12-15T15:48:11.745Z,3.30
2017-12-15T15:50:14.464Z,3.20
2017-12-15T15:52:17.955Z,2.90
2017-12-15T15:54:20.645Z,2.90
2017-12-15T15:56:23.367Z,2.70
2017-12-15T15:58:26.059Z,2.60
2017-12-15T16:00:28.763Z,2.50
2017-12-15T16:02:31.487Z,2.60
2017-12-15T16:04:34.192Z,2.70
2017-12-15T16:06:36.907Z,2.90
2017-12-15T16:08:39.589Z,3.00
2017-12-15T16:10:42.252Z,3.10
2017-12-15T16:12:44.961Z,3.10
2017-12-15T16:14:47.702Z,3.20
2017-12-15T16:16:50.402Z,3.20
2017-12-15T16:18:53.904Z,3.30
2017-12-15T16:20:56.570Z,3.30
2017-12-15T16:23:00.005Z,3.30
2017-12-15T16:25:02.691Z,3.30
2017-12-15T16:27:05.372Z,3.30
2017-12-15T16:29:08.052Z,3.30
2017-12-15T16:31:10.729Z,3.40
2017-12-15T16:33:13.432Z,3.30
2017-12-15T16:35:16.128Z,3.30
2017-12-15T16:37:19.583Z,3.30
2017-12-15T16:39:22.253Z,3.30
2017-12-15T16:41:24.934Z,3.30
2017-12-15T16:43:27.651Z,3.40
2017-12-15T16:45:31.096Z,3.50
2017-12-15T16:47:33.806Z,3.50
2017-12-15T16:49:36.489Z,3.50
2017-12-15T16:51:39.346Z,3.50
2017-12-15T16:53:42.040Z,3.50
2017-12-15T16:55:44.732Z,3.50
2017-12-15T16:57:48.194Z,3.50
2017-12-15T16:59:51.039Z,3.50
2017-12-15T17:01:53.700Z,3.50
2017-12-15T17:03:56.424Z,3.50
2017-12-15T17:05:59.118Z,3.50
2017-12-15T17:08:01.802Z,3.50
2017-12-15T17:10:05.289Z,3.50
2017-12-15T17:12:07.985Z,3.60
2017-12-15T17:14:11.441Z,3.60
2017-12-15T17:16:14.167Z,3.60
2017-12-15T17:18:17.630Z,3.50
2017-12-15T17:20:20.290Z,3.50
2017-12-15T17:22:22.996Z,3.50
2017-12-15T17:24:26.460Z,3.50
2017-12-15T17:26:29.136Z,3.50
2017-12-15T17:28:31.845Z,3.50
2017-12-15T17:30:35.299Z,3.60
2017-12-15T17:32:37.988Z,3.60
2017-12-15T17:34:40.671Z,3.60
2017-12-15T17:36:43.323Z,3.60
2017-12-15T17:38:45.991Z,3.60
2017-12-15T17:40:48.681Z,3.60
2017-12-15T17:42:51.375Z,3.60
2017-12-15T17:44:54.039Z,3.60
2017-12-15T17:46:56.710Z,3.60
2017-12-15T17:48:59.383Z,3.70
2017-12-15T17:51:02.071Z,3.70
2017-12-15T17:53:04.729Z,3.70
2017-12-15T17:55:07.386Z,3.70
2017-12-15T17:57:10.137Z,3.70
2017-12-15T17:59:14.556Z,3.70
2017-12-15T18:01:18.035Z,3.70
2017-12-15T18:03:20.673Z,3.70
2017-12-15T18:05:23.365Z,3.70
2017-12-15T18:07:26.040Z,3.70
2017-12-15T18:09:28.833Z,3.60
2017-12-15T18:11:31.538Z,3.60
2017-12-15T18:13:35.105Z,3.60
2017-12-15T18:15:37.757Z,3.60
2017-12-15T18:17:40.562Z,3.60
2017-12-15T18:19:43.393Z,3.60
2017-12-15T18:21:46.059Z,3.60
2017-12-15T18:23:48.752Z,3.50
2017-12-15T18:25:51.460Z,3.50
2017-12-15T18:27:54.130Z,3.50
2017-12-15T18:29:56.798Z,3.60
2017-12-15T18:31:59.560Z,3.50
2017-12-15T18:34:02.264Z,3.50
2017-12-15T18:36:05.092Z,3.50
2017-12-15T18:38:07.814Z,3.50
2017-12-15T18:40:10.477Z,3.50
2017-12-15T18:42:13.124Z,3.60
2017-12-15T18:44:15.825Z,3.50
2017-12-15T18:46:18.592Z,3.50
2017-12-15T18:48:21.608Z,3.50
2017-12-15T18:50:24.349Z,3.60
2017-12-15T18:52:27.088Z,3.60
2017-12-15T18:54:30.563Z,3.50
2017-12-15T18:56:34.080Z,3.50
2017-12-15T18:58:36.798Z,3.50
2017-12-15T19:00:39.495Z,3.50
2017-12-15T19:02:42.220Z,3.60
2017-12-15T19:04:45.695Z,3.60
2017-12-15T19:06:48.413Z,3.60
2017-12-15T19:08:51.156Z,3.60
2017-12-15T19:10:53.849Z,3.60
2017-12-15T19:12:57.333Z,3.50
2017-12-15T19:15:00.008Z,3.50
2017-12-15T19:17:02.717Z,3.50
2017-12-15T19:19:05.424Z,3.50
2017-12-15T19:21:08.136Z,3.50
2017-12-15T19:23:10.848Z,3.50
2017-12-15T19:25:13.615Z,3.50
2017-12-15T19:27:17.080Z,3.50
2017-12-15T19:29:19.767Z,3.50
2017-12-15T19:31:22.609Z,3.50
2017-12-15T19:33:25.302Z,3.60
2017-12-15T19:35:28.100Z,3.60
2017-12-15T19:37:30.817Z,3.60
2017-12-15T19:39:33.518Z,3.50
2017-12-15T19:41:36.201Z,3.50
2017-12-15T19:43:38.903Z,3.40
2017-12-15T19:45:42.281Z,3.40
2017-12-15T19:47:44.962Z,3.30
2017-12-15T19:49:47.646Z,3.30
2017-12-15T19:51:50.317Z,3.30
2017-12-15T19:53:52.995Z,3.30
2017-12-15T19:55:55.714Z,3.30
2017-12-15T19:57:58.383Z,3.40
2017-12-15T20:00:01.812Z,3.30
2017-12-15T20:02:04.515Z,3.30
2017-12-15T20:04:07.242Z,3.30
2017-12-15T20:06:09.959Z,3.30
2017-12-15T20:08:12.635Z,3.30
2017-12-15T20:10:15.317Z,3.40
2017-12-15T20:12:18.067Z,3.40
2017-12-15T20:14:20.730Z,3.40
2017-12-15T20:16:23.423Z,3.40
2017-12-15T20:18:26.116Z,3.40
2017-12-15T20:22:45.589Z,3.40
2017-12-15T20:24:48.274Z,3.40
2017-12-15T20:26:50.953Z,3.50
2017-12-15T20:28:53.650Z,3.50
2017-12-15T20:30:56.361Z,3.50
2017-12-15T20:32:59.046Z,3.50
2017-12-15T20:35:01.718Z,3.50
2017-12-15T20:37:04.430Z,3.50
2017-12-15T20:39:07.110Z,3.50
2017-12-15T20:41:09.779Z,3.50
2017-12-15T20:43:12.520Z,3.40
2017-12-15T20:45:15.272Z,3.40
2017-12-15T20:47:17.950Z,3.40
2017-12-15T20:49:20.745Z,3.50
2017-12-15T20:51:24.192Z,3.40
2017-12-15T20:53:26.947Z,3.40
2017-12-15T20:55:29.650Z,3.40
2017-12-15T20:57:32.881Z,3.50
2017-12-15T20:59:36.311Z,3.50
2017-12-15T21:01:39.305Z,3.50
2017-12-15T21:03:42.303Z,3.50
2017-12-15T21:05:45.189Z,3.50
2017-12-15T21:07:49.179Z,3.50
2017-12-15T21:09:52.090Z,3.50
2017-12-15T21:11:54.804Z,3.50
2017-12-15T21:13:57.528Z,3.50
2017-12-15T21:16:00.187Z,3.50
2017-12-15T21:18:02.833Z,3.50
2017-12-15T21:20:05.526Z,3.40
2017-12-15T21:22:08.181Z,3.40
2017-12-15T21:24:10.828Z,3.40
2017-12-15T21:26:13.501Z,3.40
2017-12-15T21:28:16.191Z,3.40
2017-12-15T21:30:19.685Z,3.40
2017-12-15T21:32:23.199Z,3.30
2017-12-15T21:34:25.879Z,3.30
2017-12-15T21:36:28.535Z,3.30
2017-12-15T21:38:31.997Z,3.20
2017-12-15T21:40:35.435Z,3.20
2017-12-15T21:42:38.106Z,3.20
2017-12-15T21:44:41.566Z,3.10
2017-12-15T21:46:44.230Z,3.10
2017-12-15T21:48:46.870Z,3.00
2017-12-15T21:50:49.536Z,3.00
2017-12-15T21:52:52.198Z,2.90
2017-12-15T21:54:55.645Z,2.70
2017-12-15T21:56:58.324Z,2.70
2017-12-15T21:59:00.987Z,2.70
2017-12-15T22:01:03.675Z,2.70
2017-12-15T22:03:06.338Z,2.70
2017-12-15T22:05:08.998Z,2.60
2017-12-15T22:07:11.735Z,2.70
2017-12-15T22:09:14.433Z,2.70
2017-12-15T22:11:17.893Z,2.50
2017-12-15T22:13:20.633Z,2.50
2017-12-15T22:15:24.084Z,2.40
2017-12-15T22:17:27.552Z,2.30
2017-12-15T22:19:30.241Z,2.30
2017-12-15T22:21:32.888Z,2.30
2017-12-15T22:23:35.596Z,2.30
2017-12-15T22:25:38.272Z,2.30
2017-12-15T22:27:40.975Z,2.30
2017-12-15T22:29:44.431Z,2.20
2017-12-15T22:31:47.144Z,2.20
2017-12-15T22:33:50.563Z,2.00
2017-12-15T22:35:53.209Z,1.90
2017-12-15T22:37:56.734Z,1.90
2017-12-15T22:39:59.441Z,1.90
2017-12-15T22:42:02.081Z,1.90
2017-12-15T22:44:04.765Z,1.90
2017-12-15T22:46:07.481Z,1.70
2017-12-15T22:48:10.136Z,1.70
2017-12-15T22:50:12.855Z,1.60
2017-12-15T22:52:15.569Z,1.40
2017-12-15T22:54:18.267Z,1.40
2017-12-15T22:56:20.952Z,1.40
2017-12-15T22:58:23.595Z,1.30
2017-12-15T23:00:26.295Z,1.20
2017-12-15T23:02:28.972Z,1.30
2017-12-15T23:04:31.635Z,1.10
2017-12-15T23:06:34.314Z,1.00
2017-12-15T23:08:37.029Z,0.90
2017-12-15T23:10:39.677Z,0.80
2017-12-15T23:12:42.346Z,0.70
2017-12-15T23:14:45.071Z,0.70
2017-12-15T23:16:48.499Z,0.70
2017-12-15T23:18:51.148Z,0.70
2017-12-15T23:20:54.619Z,0.40
2017-12-15T23:22:57.279Z,0.40
2017-12-15T23:24:59.971Z,0.40
2017-12-15T23:27:02.652Z,0.30
2017-12-15T23:29:05.321Z,0.40
2017-12-15T23:31:07.994Z,0.70
2017-12-15T23:33:10.666Z,0.80
2017-12-15T23:35:13.343Z,0.70
2017-12-15T23:37:16.009Z,0.70
2017-12-15T23:39:18.669Z,0.70
2017-12-15T23:41:21.319Z,0.80
2017-12-15T23:43:24.007Z,0.80
2017-12-15T23:45:26.684Z,1.00
2017-12-15T23:47:29.385Z,1.10
2017-12-15T23:49:32.099Z,1.10
2017-12-15T23:51:34.852Z,1.20
2017-12-15T23:53:37.586Z,1.10
2017-12-15T23:55:52.179Z,1.20
2017-12-15T23:57:54.841Z,1.20
2017-12-15T23:59:57.569Z,1.20
